createdAt,value
2022-11-04T00:02:47.737Z,24.05
2022-11-04T00:08:10.223Z,20.23
2022-11-04T00:13:13.622Z,22.80
2022-11-04T00:18:17.226Z,21.05
2022-11-04T00:23:39.579Z,22.38
2022-11-04T00:28:45.721Z,22.73
2022-11-04T00:33:49.804Z,17.38
2022-11-04T00:38:54.823Z,17.27
2022-11-04T00:43:59.821Z,22.45
2022-11-04T00:49:03.387Z,20.35
2022-11-04T00:54:08.471Z,20.48
2022-11-04T00:59:14.455Z,20.13
2022-11-04T01:04:18.174Z,19.33
2022-11-04T01:09:23.060Z,17.27
2022-11-04T01:14:26.705Z,19.40
2022-11-04T01:19:30.424Z,19.05
2022-11-04T01:24:35.209Z,18.95
2022-11-04T01:29:39.150Z,19.20
2022-11-04T01:34:43.797Z,22.33
2022-11-04T01:39:48.637Z,17.23
2022-11-04T01:44:54.780Z,19.17
2022-11-04T01:50:04.599Z,18.48
2022-11-04T01:55:15.231Z,19.95
2022-11-04T02:00:19.595Z,17.65
2022-11-04T02:05:24.123Z,14.57
2022-11-04T02:10:30.939Z,17.40
2022-11-04T02:15:41.280Z,17.52
2022-11-04T02:21:17.282Z,18.38
2022-11-04T02:26:56.253Z,15.98
2022-11-04T02:32:10.359Z,14.65
2022-11-04T02:37:18.859Z,15.95
2022-11-04T02:42:29.125Z,18.55
2022-11-04T02:47:37.859Z,16.80
2022-11-04T02:52:51.425Z,15.73
2022-11-04T02:57:58.589Z,13.45
2022-11-04T03:03:10.450Z,17.85
2022-11-04T03:08:19.401Z,18.38
2022-11-04T03:13:28.769Z,14.63
2022-11-04T03:18:39.386Z,14.35
2022-11-04T03:23:43.184Z,16.42
2022-11-04T03:28:53.645Z,15.07
2022-11-04T03:33:59.476Z,15.32
2022-11-04T03:39:02.928Z,13.70
2022-11-04T03:44:06.491Z,16.25
2022-11-04T03:49:12.563Z,14.80
2022-11-04T03:54:16.911Z,16.20
2022-11-04T03:59:41.279Z,15.23
2022-11-04T04:04:55.895Z,15.40
2022-11-04T04:10:25.027Z,14.00
2022-11-04T04:15:33.597Z,20.63
2022-11-04T04:20:40.831Z,17.63
2022-11-04T04:26:01.808Z,16.85
2022-11-04T04:31:05.707Z,18.40
2022-11-04T04:36:11.161Z,18.92
2022-11-04T04:41:36.849Z,19.38
2022-11-04T04:46:42.645Z,19.67
2022-11-04T04:51:49.405Z,18.05
2022-11-04T04:56:53.041Z,19.02
2022-11-04T05:01:56.563Z,18.90
2022-11-04T05:07:01.921Z,21.52
2022-11-04T05:12:05.816Z,21.67
2022-11-04T05:17:09.458Z,19.77
2022-11-04T05:22:14.226Z,24.38
2022-11-04T05:27:17.756Z,22.83
2022-11-04T05:32:21.141Z,23.73
2022-11-04T05:37:26.489Z,22.40
2022-11-04T05:42:30.632Z,24.13
2022-11-04T05:47:34.034Z,25.40
2022-11-04T05:52:38.916Z,22.83
2022-11-04T05:57:42.302Z,23.70
2022-11-04T06:02:46.122Z,24.45
2022-11-04T06:07:50.963Z,26.00
2022-11-04T06:12:54.389Z,26.60
2022-11-04T06:17:57.915Z,29.50
2022-11-04T06:23:02.697Z,29.58
2022-11-04T06:28:06.716Z,29.75
2022-11-04T06:33:10.633Z,30.70
2022-11-04T06:38:15.424Z,29.02
2022-11-04T06:43:18.800Z,31.33
2022-11-04T06:48:22.269Z,29.10
2022-11-04T06:53:27.570Z,30.73
2022-11-04T06:58:31.203Z,30.83
2022-11-04T07:03:35.094Z,29.60
2022-11-04T07:08:40.946Z,25.80
2022-11-04T07:13:44.403Z,30.58
2022-11-04T07:18:49.239Z,31.85
2022-11-04T07:23:56.757Z,24.65
2022-11-04T07:29:01.673Z,29.05
2022-11-04T07:34:06.213Z,22.75
2022-11-04T07:39:11.069Z,25.05
2022-11-04T07:44:14.915Z,24.95
2022-11-04T07:49:18.280Z,24.25
2022-11-04T07:54:23.136Z,23.00
2022-11-04T07:59:28.175Z,20.10
2022-11-04T08:04:31.604Z,22.90
2022-11-04T08:09:37.614Z,26.42
2022-11-04T08:14:41.043Z,22.65
2022-11-04T08:19:47.167Z,20.33
2022-11-04T08:24:53.103Z,22.63
2022-11-04T08:29:56.871Z,21.30
2022-11-04T08:35:00.218Z,27.02
2022-11-04T08:40:06.669Z,22.30
2022-11-04T08:45:10.652Z,20.48
2022-11-04T08:50:14.319Z,23.60
2022-11-04T08:55:20.549Z,21.25
2022-11-04T09:00:24.196Z,23.13
2022-11-04T09:05:27.933Z,26.35
2022-11-04T09:10:32.720Z,23.50
2022-11-04T09:15:36.842Z,24.40
2022-11-04T09:20:42.191Z,22.02
2022-11-04T09:25:49.030Z,24.52
2022-11-04T09:30:52.922Z,28.67
2022-11-04T09:35:57.792Z,21.85
2022-11-04T09:41:32.305Z,21.52
2022-11-04T09:46:37.656Z,25.15
2022-11-04T09:51:54.276Z,21.35
2022-11-04T09:57:02.729Z,20.80
2022-11-04T10:02:35.602Z,20.63
2022-11-04T10:08:06.014Z,21.10
2022-11-04T10:13:22.389Z,21.33
2022-11-04T10:18:36.727Z,17.55
2022-11-04T10:23:45.810Z,21.42
2022-11-04T10:28:57.227Z,23.30
2022-11-04T10:34:07.701Z,21.23
2022-11-04T10:39:17.695Z,23.88
2022-11-04T10:44:25.543Z,20.80
2022-11-04T10:50:13.890Z,23.77
2022-11-04T10:55:26.290Z,24.70
2022-11-04T11:00:39.925Z,21.77
2022-11-04T11:05:43.557Z,22.63
2022-11-04T11:10:53.255Z,21.30
2022-11-04T11:16:10.097Z,23.02
2022-11-04T11:21:21.316Z,22.25
2022-11-04T11:26:32.688Z,19.13
2022-11-04T11:31:40.305Z,18.73
2022-11-04T11:36:47.654Z,17.23
2022-11-04T11:41:55.242Z,21.38
2022-11-04T11:47:03.036Z,19.23
2022-11-04T11:52:33.849Z,24.73
2022-11-04T11:57:45.241Z,17.75
2022-11-04T12:02:57.136Z,23.00
2022-11-04T12:13:43.070Z,21.10
2022-11-04T12:19:05.751Z,22.45
2022-11-04T12:24:27.553Z,23.08
2022-11-04T12:29:45.390Z,24.80
2022-11-04T12:35:04.295Z,25.85
2022-11-04T12:40:13.967Z,29.17
2022-11-04T12:45:28.892Z,28.20
2022-11-04T12:50:56.435Z,29.85
2022-11-04T12:56:08.023Z,21.60
2022-11-04T13:01:16.282Z,27.25
2022-11-04T13:06:27.182Z,22.13
2022-11-04T13:18:20.483Z,20.20
2022-11-04T13:23:29.522Z,22.50
2022-11-04T13:28:33.372Z,19.00
2022-11-04T13:33:48.532Z,25.73
2022-11-04T13:38:55.958Z,21.15
2022-11-04T13:44:02.644Z,19.35
2022-11-04T13:49:17.253Z,23.60
2022-11-04T13:54:31.349Z,25.77
2022-11-04T13:59:35.412Z,27.33
2022-11-04T14:04:39.717Z,28.35
2022-11-04T14:10:03.526Z,30.35
2022-11-04T14:16:01.251Z,24.17
2022-11-04T14:21:08.411Z,29.45
2022-11-04T14:26:15.725Z,27.80
2022-11-04T14:31:37.441Z,28.40
2022-11-04T14:36:42.536Z,28.50
2022-11-04T14:41:57.394Z,28.05
2022-11-04T14:47:07.365Z,27.23
2022-11-04T14:52:28.935Z,33.08
2022-11-04T14:57:39.420Z,37.63
2022-11-04T15:02:43.995Z,36.75
2022-11-04T15:07:47.731Z,43.72
2022-11-04T15:12:55.148Z,35.60
2022-11-04T15:18:01.926Z,34.33
2022-11-04T15:23:09.188Z,27.55
2022-11-04T15:28:20.963Z,24.20
2022-11-04T15:33:27.725Z,30.55
2022-11-04T15:38:32.296Z,28.15
2022-11-04T15:43:37.088Z,26.45
2022-11-04T15:48:41.459Z,30.27
2022-11-04T15:53:51.780Z,31.40
2022-11-04T15:58:58.300Z,30.90
2022-11-04T16:04:03.070Z,40.55
2022-11-04T16:09:19.769Z,41.25
2022-11-04T16:14:26.602Z,45.15
2022-11-04T16:19:32.231Z,46.88
2022-11-04T16:24:37.972Z,48.88
2022-11-04T16:29:47.786Z,43.60
2022-11-04T16:34:53.873Z,43.22
2022-11-04T16:39:57.261Z,45.97
2022-11-04T16:45:03.598Z,49.00
2022-11-04T16:50:14.664Z,37.85
2022-11-04T16:55:19.950Z,32.10
2022-11-04T17:00:26.777Z,33.13
2022-11-04T17:05:30.418Z,48.75
2022-11-04T17:10:36.345Z,35.40
2022-11-04T17:15:41.682Z,44.17
2022-11-04T17:20:48.523Z,55.40
2022-11-04T17:25:52.842Z,47.70
2022-11-04T17:30:57.573Z,40.00
2022-11-04T17:36:04.880Z,41.03
2022-11-04T17:41:28.422Z,38.85
2022-11-04T17:46:35.201Z,35.58
2022-11-04T17:51:40.812Z,33.22
2022-11-04T17:56:44.651Z,47.28
2022-11-04T18:01:49.479Z,42.45
2022-11-04T18:06:57.194Z,40.30
2022-11-04T18:12:22.650Z,49.03
2022-11-04T18:17:27.740Z,43.40
2022-11-04T18:22:31.147Z,42.47
2022-11-04T18:27:34.499Z,49.92
2022-11-04T18:32:39.227Z,44.25
2022-11-04T18:37:47.058Z,44.05
2022-11-04T18:42:50.942Z,47.92
2022-11-04T18:47:55.641Z,50.60
2022-11-04T18:52:58.968Z,44.20
2022-11-04T18:58:03.095Z,46.45
2022-11-04T19:03:07.891Z,46.95
2022-11-04T19:08:11.498Z,44.33
2022-11-04T19:13:20.846Z,46.58
2022-11-04T19:18:25.561Z,51.38
2022-11-04T19:23:31.123Z,40.90
2022-11-04T19:28:44.804Z,48.83
2022-11-04T19:33:53.006Z,44.33
2022-11-04T19:38:57.759Z,59.08
2022-11-04T19:44:03.768Z,57.20
2022-11-04T19:49:09.361Z,52.78
2022-11-04T19:54:13.393Z,46.05
2022-11-04T19:59:18.886Z,49.85
2022-11-04T20:04:23.602Z,48.15
2022-11-04T20:09:27.005Z,43.03
2022-11-04T20:14:30.645Z,53.63
2022-11-04T20:19:36.063Z,48.75
2022-11-04T20:24:39.461Z,44.13
2022-11-04T20:29:43.144Z,41.20
2022-11-04T20:34:48.959Z,41.83
2022-11-04T20:39:52.377Z,45.88
2022-11-04T20:44:55.802Z,53.10
2022-11-04T20:50:00.520Z,66.65
2022-11-04T20:55:04.497Z,51.13
2022-11-04T21:00:09.386Z,50.03
2022-11-04T21:05:14.967Z,43.65
2022-11-04T21:10:18.614Z,47.53
2022-11-04T21:15:39.287Z,47.65
2022-11-04T21:20:44.134Z,42.53
2022-11-04T21:25:49.774Z,37.22
2022-11-04T21:30:55.353Z,39.72
2022-11-04T21:36:04.651Z,39.83
2022-11-04T21:41:10.751Z,40.65
2022-11-04T21:46:15.249Z,44.85
2022-11-04T21:51:22.064Z,43.90
2022-11-04T21:56:27.495Z,37.38
2022-11-04T22:01:32.493Z,38.58
2022-11-04T22:06:37.507Z,35.58
2022-11-04T22:11:40.954Z,35.22
2022-11-04T22:16:44.330Z,35.03
2022-11-04T22:21:49.356Z,34.63
2022-11-04T22:26:53.028Z,35.05
2022-11-04T22:31:56.378Z,36.15
2022-11-04T22:37:01.203Z,32.53
2022-11-04T22:42:04.677Z,28.80
2022-11-04T22:47:08.027Z,26.65
2022-11-04T22:52:12.754Z,17.42
2022-11-04T22:57:16.074Z,16.88
2022-11-04T23:02:19.632Z,13.18
2022-11-04T23:07:24.454Z,14.25
2022-11-04T23:12:45.667Z,16.48
2022-11-04T23:18:06.608Z,17.10
2022-11-04T23:23:28.914Z,21.25
2022-11-04T23:28:49.855Z,20.65
2022-11-04T23:34:10.750Z,27.20
2022-11-04T23:39:15.503Z,26.15
2022-11-04T23:44:32.814Z,24.67
2022-11-04T23:49:53.713Z,26.02
2022-11-04T23:55:16.110Z,23.45
